KAVL/AVL METAR and TAF weather

Enter ICAO airport designator
Station Type Date Time Source
KAVL METAR 2020/08/12 17:54 UTC NOAA

KAVL 121754Z VRB04KT 10SM SCT035 29/21 A3010 RMK AO2 LTG DSNT E RAB21E36 SLP161 P0000 60000 T02890211 10294 20211 58009


Station Type Date Time Source
KAVL Decoded METAR 2020/08/12 17:54 UTC NOAA

ASHEVILLE REGIONAL AIRPORT, NC, United States (KAVL) 35-26N 82-32W 670M
Aug 12, 2020 - 01:54 PM EDT / 2020.08.12 1754 UTC
Wind: Variable at 5 MPH (4 KT):0
Visibility: 10 mile(s):0
Sky conditions: partly cloudy
Weather: Lightning observed
Precipitation last hour: A trace
Temperature: 84.0 F (28.9 C)
Dew Point: 70.0 F (21.1 C)
Relative Humidity: 62%
Pressure (altimeter): 30.1 in. Hg (1019 hPa)
Pressure tendency: 0.03 inches (0.9 hPa) lower than three hours ago
ob: KAVL 121754Z VRB04KT 10SM SCT035 29/21 A3010 RMK AO2 LTG DSNT E RAB21E36 SLP161 P0000 60000 T02890211 10294 20211 58009
cycle: 18

Station Type Date Time Source
KAVL TAF 2020/08/12 18:27 UTC NOAA

TAF KAVL 121725Z 1218/1318 18005KT P6SM VCTS SCT040CB
FM122000 15006KT P6SM TSRA BKN035CB
FM130200 00000KT 6SM BR VCSH BKN040
FM130700 00000KT 2SM BR BKN012
FM130800 00000KT 1SM BR OVC006
FM131400 14003KT P6SM FEW020 SCT035 PROB30 1316/1318 4SM TSRA BR BKN035CB

Example: see airport list